Time;durP1;ratioP1;P1;durP2;ratioP2;P2;SDS_P1;SDS_P2;PMS_P1;PMS_P2;Temp;Humidity;BMP_temperature;BMP_pressure;BME280_temperature;BME280_humidity;BME280_pressure;Samples;Min_cycle;Max_cycle;Signal;HPM_P1;HPM_P2
2021/07/31 00:01:33;;;;;;;18.98;14.23;;;23.30;72.20;;;;;;5036078;28;20041;-71
2021/07/31 00:04:00;;;;;;;21.08;14.52;;;23.20;72.10;;;;;;5035976;28;20085;-71
2021/07/31 00:06:25;;;;;;;20.40;14.80;;;23.20;72.00;;;;;;5036311;28;20103;-71
2021/07/31 00:08:51;;;;;;;19.60;15.07;;;23.20;72.10;;;;;;5035704;28;20060;-71
2021/07/31 00:11:17;;;;;;;20.88;15.20;;;23.20;72.00;;;;;;5035548;28;20063;-73
2021/07/31 00:13:42;;;;;;;23.42;14.98;;;23.20;72.10;;;;;;5036146;28;20025;-71
2021/07/31 00:16:08;;;;;;;23.05;16.30;;;23.10;72.10;;;;;;5035574;28;20045;-72
2021/07/31 00:18:34;;;;;;;20.73;15.60;;;23.10;72.00;;;;;;5035932;28;20025;-71
2021/07/31 00:20:59;;;;;;;17.35;13.88;;;23.10;72.00;;;;;;5035629;28;20041;-72
2021/07/31 00:23:28;;;;;;;19.63;14.50;;;23.10;72.00;;;;;;5035490;28;20025;-72
2021/07/31 00:25:55;;;;;;;19.05;14.57;;;23.10;72.00;;;;;;5035475;28;20035;-71
2021/07/31 00:28:22;;;;;;;18.55;14.25;;;23.10;72.20;;;;;;5035638;28;20079;-72
2021/07/31 00:30:48;;;;;;;18.80;14.15;;;23.00;72.10;;;;;;5035637;28;20112;-72
2021/07/31 00:33:13;;;;;;;16.98;13.52;;;23.00;72.00;;;;;;5035644;28;20132;-72
2021/07/31 00:35:39;;;;;;;16.00;13.77;;;23.00;71.80;;;;;;5035868;28;20113;-71
2021/07/31 00:38:05;;;;;;;17.13;13.55;;;23.00;71.70;;;;;;5033798;28;20025;-72
2021/07/31 00:40:31;;;;;;;17.00;14.55;;;23.00;71.90;;;;;;5034429;28;20029;-71
2021/07/31 00:42:57;;;;;;;17.45;14.30;;;22.90;71.90;;;;;;5035504;28;20041;-71
2021/07/31 00:45:22;;;;;;;16.45;13.88;;;22.90;72.00;;;;;;5035329;28;20029;-71
2021/07/31 00:47:48;;;;;;;18.05;14.25;;;22.90;72.00;;;;;;5035293;28;20022;-71
2021/07/31 00:50:15;;;;;;;16.38;13.68;;;22.90;72.00;;;;;;5035274;28;20464;-71
2021/07/31 00:52:42;;;;;;;15.70;14.00;;;22.90;72.10;;;;;;5035089;28;20044;-71
2021/07/31 00:55:12;;;;;;;19.75;14.70;;;22.90;72.20;;;;;;5035617;28;20117;-71
2021/07/31 00:57:40;;;;;;;15.82;13.57;;;22.90;72.30;;;;;;5034938;28;20435;-71
2021/07/31 01:00:06;;;;;;;20.13;14.45;;;22.90;72.40;;;;;;5034977;28;20120;-72
2021/07/31 01:02:32;;;;;;;15.98;13.65;;;22.80;72.50;;;;;;5035206;28;20076;-71
2021/07/31 01:04:58;;;;;;;16.83;14.57;;;22.80;72.60;;;;;;5035316;28;20025;-71
2021/07/31 01:07:24;;;;;;;18.67;13.95;;;22.70;72.70;;;;;;5034851;28;20113;-71
2021/07/31 01:09:50;;;;;;;19.83;14.50;;;22.80;72.80;;;;;;5034728;28;20036;-71
2021/07/31 01:12:16;;;;;;;17.92;14.52;;;22.70;72.70;;;;;;5034759;28;20056;-72
2021/07/31 01:14:43;;;;;;;18.92;14.70;;;22.60;72.90;;;;;;5035208;28;20045;-71
2021/07/31 01:17:12;;;;;;;17.73;14.00;;;22.60;73.20;;;;;;5035097;28;20021;-72
2021/07/31 01:19:41;;;;;;;18.70;14.13;;;22.60;73.20;;;;;;5034701;28;20038;-71
2021/07/31 01:22:07;;;;;;;16.75;14.02;;;22.60;73.20;;;;;;5034609;28;20464;-71
2021/07/31 01:24:33;;;;;;;17.25;14.70;;;22.60;73.20;;;;;;5034539;28;20033;-71
2021/07/31 01:26:59;;;;;;;25.58;15.18;;;22.60;73.10;;;;;;5034313;28;20032;-71
2021/07/31 01:29:25;;;;;;;18.27;15.40;;;22.60;73.10;;;;;;5034202;28;20456;-71
2021/07/31 01:31:50;;;;;;;19.60;14.70;;;22.60;73.20;;;;;;5034390;28;20029;-71
2021/07/31 01:34:16;;;;;;;20.35;15.32;;;22.50;73.20;;;;;;5034692;28;20033;-72
2021/07/31 01:36:42;;;;;;;21.17;14.60;;;22.50;73.30;;;;;;5034954;28;20037;-71
2021/07/31 01:39:08;;;;;;;18.20;14.40;;;22.50;73.30;;;;;;5033967;28;20022;-72
2021/07/31 01:41:34;;;;;;;17.85;14.50;;;22.40;73.40;;;;;;5034025;28;20034;-71
2021/07/31 01:43:59;;;;;;;17.15;13.65;;;22.40;73.50;;;;;;5034174;28;20056;-71
2021/07/31 01:46:25;;;;;;;18.60;14.82;;;22.50;73.60;;;;;;5034200;28;20112;-72
2021/07/31 01:48:51;;;;;;;17.90;14.90;;;22.50;73.60;;;;;;5034143;28;20029;-71
2021/07/31 01:51:17;;;;;;;19.95;15.13;;;22.50;73.50;;;;;;5033575;28;20108;-72
2021/07/31 01:53:43;;;;;;;32.72;16.33;;;22.50;73.50;;;;;;5032680;28;20105;-71
2021/07/31 01:56:09;;;;;;;19.83;15.15;;;22.40;73.40;;;;;;5033914;28;20105;-72
2021/07/31 01:58:34;;;;;;;17.65;13.90;;;22.40;73.50;;;;;;5033835;28;20480;-71
2021/07/31 02:01:00;;;;;;;19.50;15.15;;;22.30;73.50;;;;;;5033648;28;20030;-71
2021/07/31 02:03:27;;;;;;;21.77;14.52;;;22.30;73.80;;;;;;5034226;28;20136;-71
2021/07/31 02:05:53;;;;;;;24.20;16.48;;;22.30;73.90;;;;;;5033795;28;20033;-71
2021/07/31 02:08:19;;;;;;;20.17;16.13;;;22.30;74.00;;;;;;5034107;28;20028;-71
2021/07/31 02:10:45;;;;;;;21.33;16.27;;;22.30;74.20;;;;;;5032538;28;20102;-72
2021/07/31 02:13:12;;;;;;;24.42;15.57;;;22.20;74.20;;;;;;5033909;28;20026;-72
2021/07/31 02:15:44;;;;;;;20.98;16.25;;;22.20;74.50;;;;;;5033787;28;20407;-71
2021/07/31 02:18:11;;;;;;;20.85;16.20;;;22.20;74.60;;;;;;5033755;28;20025;-72
2021/07/31 02:20:37;;;;;;;21.55;16.17;;;22.20;74.60;;;;;;5033753;28;20033;-71
2021/07/31 02:23:04;;;;;;;21.80;14.70;;;22.10;74.60;;;;;;5033855;28;20033;-71
2021/07/31 02:25:30;;;;;;;18.92;15.85;;;22.10;74.70;;;;;;5033154;28;20391;-71
2021/07/31 02:27:55;;;;;;;20.33;16.42;;;22.10;74.80;;;;;;5033622;28;20033;-71
2021/07/31 02:30:22;;;;;;;21.30;16.35;;;22.10;74.90;;;;;;5033597;28;20382;-72
2021/07/31 02:32:47;;;;;;;23.65;16.48;;;22.10;75.00;;;;;;5032405;28;20029;-71
2021/07/31 02:35:13;;;;;;;23.25;16.88;;;22.10;75.00;;;;;;5033508;28;20048;-71
2021/07/31 02:37:39;;;;;;;21.58;17.50;;;22.10;75.00;;;;;;5033398;28;20104;-71
2021/07/31 02:40:05;;;;;;;20.73;17.27;;;22.10;75.00;;;;;;5033154;28;20464;-72
2021/07/31 02:42:31;;;;;;;21.20;16.92;;;22.10;75.10;;;;;;5033040;28;20029;-72
2021/07/31 02:44:59;;;;;;;22.20;16.27;;;22.10;75.10;;;;;;5032980;28;20440;-71
2021/07/31 02:47:24;;;;;;;21.58;16.95;;;22.10;75.30;;;;;;5033114;28;20381;-71
2021/07/31 02:49:50;;;;;;;23.17;16.05;;;22.10;75.30;;;;;;5033446;28;20052;-71
2021/07/31 02:52:16;;;;;;;20.60;15.90;;;22.10;75.30;;;;;;5033242;28;20135;-71
2021/07/31 02:54:41;;;;;;;22.38;17.05;;;22.00;75.20;;;;;;5033072;28;20064;-72
2021/07/31 02:57:07;;;;;;;24.60;17.13;;;22.00;75.50;;;;;;5033083;28;20052;-71
2021/07/31 02:59:33;;;;;;;24.08;17.73;;;22.00;75.60;;;;;;5033019;28;20134;-72
2021/07/31 03:01:58;;;;;;;22.58;17.77;;;22.00;75.80;;;;;;5033122;28;20042;-71
2021/07/31 03:04:24;;;;;;;23.48;18.25;;;22.00;75.70;;;;;;5037674;28;20036;-71
2021/07/31 03:06:50;;;;;;;21.05;17.20;;;22.10;75.70;;;;;;5037416;28;20029;-72
2021/07/31 03:09:15;;;;;;;22.08;16.63;;;22.10;75.70;;;;;;5037536;28;20056;-71
2021/07/31 03:11:41;;;;;;;21.13;15.90;;;22.10;75.50;;;;;;5037131;28;20021;-70
2021/07/31 03:14:07;;;;;;;18.38;15.15;;;22.20;75.30;;;;;;5036859;28;20029;-71
2021/07/31 03:16:33;;;;;;;17.90;14.85;;;22.20;75.80;;;;;;5036880;28;20025;-72
2021/07/31 03:18:58;;;;;;;17.85;14.48;;;22.10;75.10;;;;;;5036707;28;20152;-71
2021/07/31 03:21:24;;;;;;;17.70;13.43;;;22.10;74.90;;;;;;5036984;28;20388;-72
2021/07/31 03:23:50;;;;;;;17.30;13.38;;;22.20;74.80;;;;;;5037312;28;20034;-71
2021/07/31 03:26:15;;;;;;;18.65;14.00;;;22.20;74.70;;;;;;5036984;28;20523;-72
2021/07/31 03:28:41;;;;;;;16.23;13.55;;;22.20;74.60;;;;;;5036838;28;20128;-72
2021/07/31 03:31:07;;;;;;;18.45;13.52;;;22.30;74.60;;;;;;5036958;28;20025;-71
2021/07/31 03:33:32;;;;;;;20.92;13.77;;;22.30;74.40;;;;;;5036407;28;20049;-72
2021/07/31 03:35:58;;;;;;;17.08;13.30;;;22.30;74.10;;;;;;5036669;28;20036;-71
2021/07/31 03:38:24;;;;;;;17.15;12.57;;;22.40;73.90;;;;;;5036155;28;20053;-72
2021/07/31 03:40:52;;;;;;;16.17;12.52;;;22.40;73.70;;;;;;5036346;28;20048;-72
2021/07/31 03:43:18;;;;;;;15.23;12.15;;;22.50;73.60;;;;;;5036481;28;20498;-71
2021/07/31 03:45:43;;;;;;;21.25;12.50;;;22.50;73.30;;;;;;5036375;28;20053;-72
2021/07/31 03:48:09;;;;;;;14.38;11.75;;;22.50;73.20;;;;;;5036398;28;20065;-71
2021/07/31 03:50:40;;;;;;;16.50;12.57;;;22.60;72.90;;;;;;5037239;28;20021;-72
2021/07/31 03:53:05;;;;;;;23.30;12.40;;;22.70;72.90;;;;;;5036583;28;20045;-72
2021/07/31 03:55:31;;;;;;;19.55;13.23;;;22.70;72.70;;;;;;5036004;28;20061;-72
2021/07/31 03:57:57;;;;;;;16.30;12.18;;;22.80;72.50;;;;;;5035732;28;20021;-72
2021/07/31 04:00:22;;;;;;;15.48;12.65;;;22.90;72.20;;;;;;5036238;28;20029;-72
2021/07/31 04:02:48;;;;;;;16.20;12.90;;;23.00;72.10;;;;;;5036391;28;20096;-72
2021/07/31 04:05:14;;;;;;;16.33;10.90;;;23.00;71.90;;;;;;5036069;28;20072;-71
2021/07/31 04:07:39;;;;;;;14.30;10.93;;;23.10;71.60;;;;;;5036067;28;20033;-71
2021/07/31 04:10:06;;;;;;;14.80;11.30;;;23.10;71.30;;;;;;5035838;28;20441;-71
2021/07/31 04:12:31;;;;;;;15.57;11.57;;;23.20;71.30;;;;;;5035760;28;20032;-71
2021/07/31 04:14:58;;;;;;;15.55;11.68;;;23.30;71.30;;;;;;5035690;28;20104;-71
2021/07/31 04:17:23;;;;;;;16.23;10.95;;;23.40;71.20;;;;;;5035929;28;20455;-71
2021/07/31 04:19:51;;;;;;;13.98;11.25;;;23.50;71.00;;;;;;5035632;28;20034;-71
2021/07/31 04:22:16;;;;;;;12.88;11.07;;;23.60;70.70;;;;;;5035513;28;20040;-72
2021/07/31 04:24:42;;;;;;;17.55;11.30;;;23.70;70.50;;;;;;5035333;28;20406;-71
2021/07/31 04:27:08;;;;;;;14.45;10.57;;;23.80;70.30;;;;;;5035744;28;20030;-71
2021/07/31 04:29:34;;;;;;;16.25;10.32;;;23.90;69.90;;;;;;5035557;28;20108;-71
2021/07/31 04:32:00;;;;;;;14.98;11.20;;;24.00;69.60;;;;;;5035827;28;20037;-72
2021/07/31 04:34:29;;;;;;;15.60;10.35;;;24.10;69.40;;;;;;5035638;28;20076;-71
2021/07/31 04:36:55;;;;;;;13.30;10.27;;;24.20;69.10;;;;;;5035286;28;20472;-71
2021/07/31 04:39:20;;;;;;;17.02;10.52;;;24.30;68.70;;;;;;5035245;28;20113;-72
2021/07/31 04:41:46;;;;;;;14.52;9.52;;;24.40;68.50;;;;;;5035639;28;20026;-71
2021/07/31 04:44:12;;;;;;;12.88;10.48;;;24.50;68.30;;;;;;5035420;28;20037;-71
2021/07/31 04:46:37;;;;;;;14.68;9.73;;;24.50;68.00;;;;;;5035384;28;20443;-70
2021/07/31 04:49:03;;;;;;;16.65;10.70;;;24.60;67.50;;;;;;5035507;28;20091;-71
2021/07/31 04:51:29;;;;;;;12.25;9.68;;;24.70;67.30;;;;;;5035787;28;20096;-71
2021/07/31 04:53:54;;;;;;;10.68;9.02;;;24.80;67.00;;;;;;5033589;28;20087;-72
2021/07/31 04:56:20;;;;;;;10.50;7.72;;;24.90;66.70;;;;;;5034870;28;20124;-72
2021/07/31 04:58:46;;;;;;;12.57;7.53;;;25.00;66.00;;;;;;5034928;28;20028;-73
2021/07/31 05:01:12;;;;;;;10.90;8.15;;;25.10;65.60;;;;;;5034994;28;20391;-73
2021/07/31 05:03:37;;;;;;;11.13;8.27;;;25.20;65.50;;;;;;5035866;28;20128;-71
2021/07/31 05:06:06;;;;;;;9.82;7.95;;;25.30;65.00;;;;;;5034887;28;20032;-71
2021/07/31 05:08:32;;;;;;;11.30;8.05;;;25.40;64.60;;;;;;5034732;28;20022;-71
2021/07/31 05:10:58;;;;;;;10.15;8.35;;;25.40;64.30;;;;;;5034502;28;20029;-71
2021/07/31 05:13:24;;;;;;;11.10;8.80;;;25.50;64.00;;;;;;5034939;28;20028;-71
2021/07/31 05:15:49;;;;;;;11.52;9.20;;;25.60;64.60;;;;;;5034723;28;20111;-71
2021/07/31 05:18:15;;;;;;;12.38;9.27;;;25.70;63.70;;;;;;5034683;28;20399;-72
2021/07/31 05:20:43;;;;;;;12.40;9.07;;;25.80;63.70;;;;;;5034508;28;20034;-71
2021/07/31 05:23:09;;;;;;;10.65;9.30;;;25.90;63.70;;;;;;5034605;28;20029;-72
2021/07/31 05:25:35;;;;;;;21.17;10.05;;;26.00;63.60;;;;;;5033407;28;20022;-71
2021/07/31 05:28:01;;;;;;;11.68;9.00;;;26.00;63.30;;;;;;5035004;28;20025;-73
2021/07/31 05:30:27;;;;;;;10.52;8.45;;;26.20;63.10;;;;;;5034631;28;20037;-71
2021/07/31 05:32:53;;;;;;;13.65;9.65;;;26.20;63.10;;;;;;5034555;28;20520;-71
2021/07/31 05:35:18;;;;;;;13.13;9.07;;;26.30;63.00;;;;;;5034309;28;20053;-71
2021/07/31 05:37:44;;;;;;;10.10;8.80;;;26.40;62.80;;;;;;5033141;28;20029;-71
2021/07/31 05:40:11;;;;;;;12.80;9.40;;;26.50;62.70;;;;;;5033783;28;20084;-71
2021/07/31 05:42:37;;;;;;;12.65;8.93;;;26.60;62.60;;;;;;5034058;28;20460;-71
2021/07/31 05:45:05;;;;;;;13.65;9.63;;;26.80;62.30;;;;;;5034590;28;20452;-71
2021/07/31 05:47:31;;;;;;;11.38;8.95;;;26.90;61.80;;;;;;5034104;28;20030;-72
2021/07/31 05:49:58;;;;;;;10.20;9.00;;;26.90;61.50;;;;;;5034328;28;20038;-72
2021/07/31 05:52:26;;;;;;;13.48;9.80;;;27.00;61.50;;;;;;5034366;28;20026;-72
2021/07/31 05:54:52;;;;;;;11.75;8.82;;;27.10;61.40;;;;;;5034110;28;20025;-72
2021/07/31 05:57:19;;;;;;;11.02;9.00;;;27.20;61.10;;;;;;5033705;28;20021;-73
2021/07/31 05:59:45;;;;;;;13.43;8.70;;;27.30;60.80;;;;;;5034057;28;20460;-72
2021/07/31 06:02:10;;;;;;;10.80;8.15;;;27.40;60.40;;;;;;5033683;28;20125;-72
2021/07/31 06:04:39;;;;;;;10.57;8.13;;;27.40;60.10;;;;;;5033834;28;20079;-72
2021/07/31 06:07:10;;;;;;;12.50;8.13;;;27.50;59.70;;;;;;5033129;28;20029;-72
2021/07/31 06:09:40;;;;;;;8.98;7.70;;;27.60;59.30;;;;;;5034283;28;20060;-72
2021/07/31 06:12:07;;;;;;;9.20;7.82;;;27.60;58.90;;;;;;5033993;28;20080;-72
2021/07/31 06:14:34;;;;;;;10.80;7.80;;;27.70;59.00;;;;;;5033705;28;20025;-72
2021/07/31 06:17:00;;;;;;;10.38;8.52;;;27.80;59.10;;;;;;5033368;28;20507;-72
2021/07/31 06:19:27;;;;;;;10.93;7.82;;;27.90;58.60;;;;;;5033402;28;20029;-72
2021/07/31 06:21:53;;;;;;;9.48;7.22;;;27.90;58.20;;;;;;5033551;28;20076;-72
2021/07/31 06:24:19;;;;;;;10.13;7.85;;;28.00;58.10;;;;;;5033659;28;20029;-72
2021/07/31 06:26:44;;;;;;;9.07;7.15;;;28.10;58.00;;;;;;5033563;28;20064;-72
2021/07/31 06:29:10;;;;;;;10.30;7.93;;;28.10;57.80;;;;;;5033309;28;20033;-72
2021/07/31 06:31:36;;;;;;;10.02;7.68;;;28.20;57.80;;;;;;5033286;28;20033;-72
2021/07/31 06:34:02;;;;;;;11.15;8.32;;;28.20;57.50;;;;;;5033033;28;20100;-72
2021/07/31 06:36:27;;;;;;;16.27;8.10;;;28.30;57.50;;;;;;5032656;28;20030;-73
2021/07/31 06:38:53;;;;;;;12.38;7.78;;;28.40;57.70;;;;;;5033733;28;20033;-72
2021/07/31 06:41:19;;;;;;;15.48;7.50;;;28.50;57.30;;;;;;5033107;28;20136;-73
2021/07/31 06:43:45;;;;;;;9.23;7.47;;;28.50;56.80;;;;;;5033536;28;20025;-72
2021/07/31 06:46:18;;;;;;;9.20;7.80;;;28.50;56.80;;;;;;5033577;28;20025;-72
2021/07/31 06:48:44;;;;;;;;;;;28.60;56.70;;;;;;5033375;28;20038;-72
2021/07/31 06:51:10;;;;;;;10.90;7.80;;;28.70;57.10;;;;;;5033764;28;19905;-72
2021/07/31 06:53:36;;;;;;;12.98;8.60;;;28.70;57.00;;;;;;5033564;28;20025;-72
2021/07/31 06:56:03;;;;;;;10.93;7.43;;;28.80;57.00;;;;;;5033160;28;20182;-72
2021/07/31 06:58:29;;;;;;;11.50;8.55;;;28.90;56.70;;;;;;5033149;28;20426;-72
2021/07/31 07:00:55;;;;;;;11.15;8.32;;;28.90;56.60;;;;;;5032899;28;20037;-72
2021/07/31 07:03:20;;;;;;;11.32;8.70;;;28.90;56.80;;;;;;5033721;28;20073;-72
2021/07/31 07:05:47;;;;;;;8.63;7.53;;;29.00;57.10;;;;;;5033771;28;20030;-72
2021/07/31 07:08:13;;;;;;;8.20;7.38;;;29.10;56.50;;;;;;5033056;28;20379;-72
2021/07/31 07:10:39;;;;;;;9.77;7.65;;;29.10;56.30;;;;;;5033212;28;20037;-72
2021/07/31 07:13:06;;;;;;;8.90;6.78;;;29.20;56.20;;;;;;5032852;28;20523;-72
2021/07/31 07:15:31;;;;;;;13.98;6.97;;;29.30;55.70;;;;;;5032827;28;20349;-72
2021/07/31 07:17:58;;;;;;;11.80;7.00;;;29.30;55.30;;;;;;5032858;28;20056;-72
2021/07/31 07:20:25;;;;;;;9.38;6.93;;;29.40;55.50;;;;;;5032895;28;20464;-73
2021/07/31 07:22:51;;;;;;;10.25;6.72;;;29.40;55.30;;;;;;5033008;28;20076;-72
2021/07/31 07:25:18;;;;;;;10.30;7.05;;;29.50;55.00;;;;;;5032799;28;20057;-72
2021/07/31 07:27:43;;;;;;;10.07;6.72;;;29.50;54.90;;;;;;5033467;28;20035;-72
2021/07/31 07:30:10;;;;;;;7.45;6.70;;;29.60;54.90;;;;;;5033088;28;20455;-71
2021/07/31 07:32:36;;;;;;;7.45;6.65;;;29.60;54.80;;;;;;5032985;28;20057;-72
2021/07/31 07:35:03;;;;;;;9.50;7.00;;;29.70;54.50;;;;;;5032926;28;20087;-72
2021/07/31 07:37:29;;;;;;;10.23;8.25;;;29.90;54.90;;;;;;5032927;28;20036;-72
2021/07/31 07:39:54;;;;;;;10.77;8.40;;;30.00;56.10;;;;;;5032942;28;20112;-72
2021/07/31 07:42:20;;;;;;;10.27;8.38;;;30.10;56.90;;;;;;5032531;28;20033;-71
2021/07/31 07:44:46;;;;;;;12.43;8.60;;;30.20;57.40;;;;;;5032600;28;20028;-71
2021/07/31 07:47:11;;;;;;;13.27;8.38;;;30.30;57.20;;;;;;5032478;28;20368;-71
2021/07/31 07:49:37;;;;;;;11.70;8.60;;;30.50;57.20;;;;;;5035182;28;20087;-72
2021/07/31 07:52:04;;;;;;;13.82;8.90;;;30.60;57.50;;;;;;5035900;28;20044;-72
2021/07/31 07:54:29;;;;;;;12.93;8.68;;;30.60;58.40;;;;;;5036414;28;20375;-72
2021/07/31 07:56:58;;;;;;;11.60;9.30;;;30.70;57.90;;;;;;5036925;28;20026;-72
2021/07/31 07:59:24;;;;;;;11.40;8.38;;;30.80;57.80;;;;;;5036886;28;20034;-71
2021/07/31 08:01:50;;;;;;;12.30;8.70;;;30.90;57.50;;;;;;5035602;28;20510;-73
2021/07/31 08:04:16;;;;;;;9.75;8.75;;;31.00;57.10;;;;;;5035934;28;20504;-71
2021/07/31 08:06:42;;;;;;;11.73;8.73;;;31.20;57.00;;;;;;5034760;28;20171;-72
2021/07/31 08:09:08;;;;;;;14.38;8.65;;;31.30;56.30;;;;;;5035885;28;20357;-72
2021/07/31 08:11:34;;;;;;;12.38;9.02;;;31.40;56.30;;;;;;5036036;28;20057;-72
2021/07/31 08:14:01;;;;;;;9.23;8.20;;;31.60;56.10;;;;;;5035859;28;20115;-71
2021/07/31 08:16:27;;;;;;;9.43;8.52;;;31.70;55.70;;;;;;5036374;28;20117;-72
2021/07/31 08:18:53;;;;;;;10.32;7.95;;;31.90;55.70;;;;;;5035866;28;20061;-72
2021/07/31 08:21:18;;;;;;;9.63;8.63;;;32.00;55.50;;;;;;5035001;28;20033;-72
2021/07/31 08:23:44;;;;;;;10.00;7.97;;;32.20;55.30;;;;;;5035892;28;20048;-71
2021/07/31 08:26:15;;;;;;;11.07;7.80;;;32.30;54.80;;;;;;5035928;28;20051;-72
2021/07/31 08:28:44;;;;;;;9.02;6.50;;;32.50;54.50;;;;;;5035796;28;20491;-72
2021/07/31 08:31:12;;;;;;;8.95;6.88;;;32.70;53.90;;;;;;5035630;28;20030;-72
2021/07/31 08:33:38;;;;;;;8.55;6.43;;;32.90;52.80;;;;;;5036008;28;20459;-72
2021/07/31 08:36:04;;;;;;;11.13;8.50;;;33.10;51.90;;;;;;5035840;28;20376;-72
2021/07/31 08:38:30;;;;;;;12.90;6.78;;;33.40;51.60;;;;;;5034498;28;20426;-71
2021/07/31 08:40:56;;;;;;;11.05;6.55;;;33.60;51.30;;;;;;5035543;28;20048;-72
2021/07/31 08:43:22;;;;;;;7.28;6.55;;;33.90;50.90;;;;;;5035496;28;20030;-72
2021/07/31 08:45:49;;;;;;;9.55;6.45;;;34.10;50.60;;;;;;5035985;28;20050;-71
2021/07/31 08:48:15;;;;;;;7.25;6.10;;;34.30;50.30;;;;;;5034218;28;20352;-72
2021/07/31 08:50:44;;;;;;;8.93;5.80;;;34.50;50.00;;;;;;5035688;28;20104;-72
2021/07/31 08:53:10;;;;;;;12.65;6.15;;;34.70;50.20;;;;;;5035553;28;20033;-72
2021/07/31 08:55:35;;;;;;;7.03;5.70;;;34.80;49.40;;;;;;5035242;28;20028;-72
2021/07/31 08:58:03;;;;;;;12.10;6.15;;;35.10;49.50;;;;;;5035219;28;20026;-72
2021/07/31 09:00:29;;;;;;;7.38;6.15;;;35.20;49.00;;;;;;5034310;28;20026;-73
2021/07/31 09:02:55;;;;;;;9.32;5.90;;;35.50;48.80;;;;;;5035079;28;20409;-72
2021/07/31 09:05:48;;;;;;;9.20;5.88;;;35.60;48.40;;;;;;5035243;28;20100;-72
2021/07/31 09:08:14;;;;;;;8.18;6.38;;;35.90;48.20;;;;;;5032484;28;20361;-72
2021/07/31 09:10:42;;;;;;;12.80;5.80;;;36.00;48.00;;;;;;5035169;28;20571;-72
2021/07/31 09:13:12;;;;;;;8.35;5.30;;;36.10;47.70;;;;;;5035252;28;20025;-72
2021/07/31 09:15:41;;;;;;;6.63;5.07;;;36.20;47.40;;;;;;5035596;28;20036;-72
2021/07/31 09:18:29;;;;;;;7.32;5.40;;;36.40;47.20;;;;;;5034658;28;20032;-72
2021/07/31 09:21:03;;;;;;;6.10;5.50;;;36.60;46.30;;;;;;5034746;28;20148;-73
2021/07/31 09:23:35;;;;;;;8.45;5.45;;;36.50;46.20;;;;;;5034749;28;20029;-73
2021/07/31 09:26:02;;;;;;;6.53;5.80;;;36.60;46.40;;;;;;5034485;28;20511;-72
2021/07/31 09:28:28;;;;;;;11.13;6.57;;;36.80;46.20;;;;;;5034612;28;20258;-72
2021/07/31 09:30:54;;;;;;;6.75;5.45;;;36.70;45.90;;;;;;5034524;28;20030;-73
2021/07/31 09:33:20;;;;;;;11.35;6.05;;;36.70;46.20;;;;;;5034635;28;20091;-73
2021/07/31 09:36:00;;;;;;;7.18;5.80;;;36.90;46.20;;;;;;5034707;28;20040;-72
2021/07/31 09:38:37;;;;;;;9.05;5.18;;;37.30;46.10;;;;;;5034831;28;20060;-74
2021/07/31 09:41:28;;;;;;;7.05;6.00;;;37.80;45.10;;;;;;5033924;28;20072;-73
2021/07/31 09:44:15;;;;;;;6.07;5.47;;;38.20;44.50;;;;;;5033522;28;20030;-72
2021/07/31 09:46:54;;;;;;;5.55;5.05;;;38.60;44.00;;;;;;5033530;28;20041;-73
2021/07/31 09:49:22;;;;;;;12.13;5.70;;;38.90;43.80;;;;;;5034434;28;20030;-73
2021/07/31 09:51:50;;;;;;;6.88;4.95;;;39.10;43.60;;;;;;5034152;28;20037;-73
2021/07/31 09:54:18;;;;;;;7.45;5.65;;;39.20;43.20;;;;;;5033704;28;20022;-73
2021/07/31 09:56:49;;;;;;;6.00;5.40;;;39.10;42.90;;;;;;5033994;28;20029;-73
2021/07/31 09:59:17;;;;;;;5.93;5.25;;;39.30;43.50;;;;;;5034012;28;20030;-73
2021/07/31 10:01:50;;;;;;;5.63;5.03;;;39.70;42.60;;;;;;5034269;28;20484;-73
2021/07/31 10:04:17;;;;;;;7.63;4.93;;;40.10;42.10;;;;;;5034419;28;20037;-73
2021/07/31 10:06:43;;;;;;;5.55;4.70;;;40.40;41.60;;;;;;5033897;28;20057;-72
2021/07/31 10:09:10;;;;;;;6.63;4.90;;;40.80;40.80;;;;;;5033552;28;20553;-73
2021/07/31 10:11:39;;;;;;;4.55;4.15;;;41.00;40.40;;;;;;5033449;28;20160;-73
2021/07/31 10:14:09;;;;;;;7.63;4.90;;;41.20;40.10;;;;;;5033659;28;20025;-73
2021/07/31 10:16:43;;;;;;;8.20;4.70;;;41.20;39.60;;;;;;5033941;28;20028;-73
2021/07/31 10:19:10;;;;;;;8.10;4.25;;;40.90;39.80;;;;;;5033874;28;20029;-73
2021/07/31 10:21:47;;;;;;;7.68;4.63;;;41.10;39.70;;;;;;5033374;28;20029;-73
2021/07/31 10:24:13;;;;;;;7.75;4.78;;;41.40;39.80;;;;;;5033680;28;20029;-73
2021/07/31 10:26:39;;;;;;;7.95;4.82;;;41.80;39.40;;;;;;5032152;28;20087;-74
2021/07/31 10:29:29;;;;;;;5.32;4.03;;;42.20;39.20;;;;;;5033246;28;20022;-73
2021/07/31 10:31:55;;;;;;;5.57;4.68;;;42.30;38.90;;;;;;5033350;28;20049;-73
2021/07/31 10:34:46;;;;;;;9.25;4.57;;;42.50;39.00;;;;;;5033274;28;20032;-73
2021/07/31 10:37:28;;;;;;;6.05;4.50;;;42.90;38.90;;;;;;5033633;28;20078;-72
2021/07/31 10:39:58;;;;;;;7.20;4.82;;;43.20;38.30;;;;;;5033400;28;20037;-73
2021/07/31 10:42:24;;;;;;;7.15;4.50;;;43.60;37.80;;;;;;5033537;28;20033;-73
2021/07/31 10:45:15;;;;;;;6.47;4.30;;;43.80;37.50;;;;;;5033391;28;20048;-73
2021/07/31 10:47:50;;;;;;;4.25;3.85;;;44.00;37.40;;;;;;5033931;28;20022;-73
2021/07/31 10:50:22;;;;;;;4.93;4.30;;;44.30;37.50;;;;;;5033032;28;20510;-73
2021/07/31 10:53:10;;;;;;;10.85;4.60;;;44.50;37.30;;;;;;5033224;28;20071;-73
2021/07/31 10:55:36;;;;;;;11.07;4.93;;;44.70;37.10;;;;;;5033428;28;20471;-73
2021/07/31 10:58:07;;;;;;;6.88;4.35;;;44.70;36.70;;;;;;5033421;28;20037;-72
2021/07/31 11:00:43;;;;;;;6.88;4.30;;;44.80;36.70;;;;;;5033505;28;20030;-73
2021/07/31 11:03:31;;;;;;;6.65;4.07;;;44.90;36.60;;;;;;5033708;28;20053;-73
2021/07/31 11:06:06;;;;;;;5.22;3.90;;;45.10;36.70;;;;;;5033827;28;20022;-72
2021/07/31 11:08:53;;;;;;;7.78;4.35;;;45.30;36.60;;;;;;5033707;28;20029;-73
2021/07/31 11:11:19;;;;;;;7.05;4.60;;;45.60;36.30;;;;;;5033001;28;20041;-71
2021/07/31 11:13:45;;;;;;;5.78;4.90;;;45.80;36.10;;;;;;5033041;28;20029;-73
2021/07/31 11:16:13;;;;;;;5.78;3.92;;;46.00;35.90;;;;;;5033207;28;20029;-73
2021/07/31 11:18:47;;;;;;;4.68;4.00;;;46.20;35.70;;;;;;5033227;28;20108;-73
2021/07/31 11:21:28;;;;;;;4.63;4.22;;;45.90;35.10;;;;;;5033140;28;20037;-72
2021/07/31 11:24:12;;;;;;;7.15;4.97;;;45.00;35.30;;;;;;5035384;28;20104;-72
2021/07/31 11:26:40;;;;;;;7.72;4.50;;;44.90;35.80;;;;;;5037458;28;20104;-73
2021/07/31 11:29:23;;;;;;;5.32;4.53;;;45.30;35.90;;;;;;5036751;28;20105;-73
2021/07/31 11:32:03;;;;;;;4.75;4.28;;;45.80;35.40;;;;;;5036763;28;20025;-73
2021/07/31 11:34:43;;;;;;;6.55;4.35;;;46.20;35.10;;;;;;5037050;28;20017;-73
2021/07/31 11:37:09;;;;;;;5.90;4.25;;;46.50;34.90;;;;;;5036727;28;20039;-72
2021/07/31 11:39:36;;;;;;;7.32;4.45;;;46.80;34.50;;;;;;5036596;28;20385;-73
2021/07/31 11:42:02;;;;;;;4.95;4.18;;;47.00;34.30;;;;;;5037016;28;20029;-73
2021/07/31 11:44:33;;;;;;;7.85;4.35;;;47.20;34.40;;;;;;5035264;28;20026;-75
2021/07/31 11:47:00;;;;;;;7.15;4.35;;;47.40;34.40;;;;;;5036879;28;20531;-73
2021/07/31 11:49:30;;;;;;;4.20;3.80;;;47.80;34.30;;;;;;5036920;28;20057;-74
2021/07/31 11:52:08;;;;;;;9.35;4.03;;;48.10;34.10;;;;;;5036393;28;20022;-71
2021/07/31 11:54:41;;;;;;;5.47;4.28;;;48.40;33.90;;;;;;5036300;28;20026;-74
2021/07/31 11:57:07;;;;;;;7.78;4.68;;;48.60;33.60;;;;;;5035764;28;20037;-73
2021/07/31 11:59:37;;;;;;;6.55;4.22;;;48.70;33.60;;;;;;5036436;28;20353;-75
2021/07/31 12:02:03;;;;;;;4.60;4.20;;;48.70;33.20;;;;;;5036485;28;20049;-72
2021/07/31 12:04:55;;;;;;;5.63;3.90;;;48.40;33.30;;;;;;5036512;28;20034;-74
2021/07/31 12:07:24;;;;;;;4.45;4.05;;;48.60;33.30;;;;;;5034502;28;20037;-73
2021/07/31 12:10:09;;;;;;;6.68;4.65;;;48.80;33.00;;;;;;5036785;28;20034;-73
2021/07/31 12:12:36;;;;;;;9.10;5.15;;;49.20;33.10;;;;;;5034945;28;20159;-75
2021/07/31 12:15:26;;;;;;;4.40;4.00;;;49.30;32.90;;;;;;5034869;28;20052;-73
2021/07/31 12:17:56;;;;;;;5.00;4.25;;;49.60;32.60;;;;;;5036128;28;20441;-74
2021/07/31 12:20:35;;;;;;;4.72;4.32;;;49.80;32.50;;;;;;5035666;28;20030;-74
2021/07/31 12:23:02;;;;;;;4.35;4.00;;;49.90;32.40;;;;;;5035820;28;20375;-73
2021/07/31 12:25:28;;;;;;;4.60;4.18;;;50.00;32.30;;;;;;5035917;28;20049;-73
2021/07/31 12:28:02;;;;;;;9.10;4.40;;;50.10;32.10;;;;;;5035374;28;20080;-73
2021/07/31 12:30:34;;;;;;;4.80;4.40;;;50.20;32.10;;;;;;5035794;28;20034;-74
2021/07/31 12:33:06;;;;;;;4.55;4.13;;;50.30;31.70;;;;;;5035776;28;20083;-73
2021/07/31 12:35:58;;;;;;;4.32;3.95;;;50.20;31.80;;;;;;5035745;28;20112;-73
2021/07/31 12:38:25;;;;;;;6.43;4.28;;;49.80;32.60;;;;;;5028639;28;20044;-72
2021/07/31 12:40:54;;;;;;;5.32;4.43;;;49.90;31.80;;;;;;5035397;28;20026;-73